Time;durP1;ratioP1;P1;durP2;ratioP2;P2;SDS_P1;SDS_P2;PMS_P1;PMS_P2;Temp;Humidity;BMP_temperature;BMP_pressure;BME280_temperature;BME280_humidity;BME280_pressure;Samples;Min_cycle;Max_cycle;Signal;HPM_P1;HPM_P2
2021/10/14 00:01:20;;;;;;;;;;;;;;;28.85;65.90;100564.88;5083042;27;66289;-33
2021/10/14 00:03:52;;;;;;;;;;;;;;;28.90;66.63;100562.38;5073710;27;69518;-33
2021/10/14 00:06:27;;;;;;;;;;;;;;;28.95;67.50;100561.72;5073051;27;66010;-33
2021/10/14 00:09:04;;;;;;;;;;;;;;;28.99;70.59;100560.25;5068620;27;69398;-33
2021/10/14 00:11:43;;;;;;;;;;;;;;;29.04;72.91;100560.47;5073547;27;65100;-33
2021/10/14 00:14:23;;;;;;;;;;;;;;;29.10;73.44;100561.47;5070919;27;69514;-33
2021/10/14 00:16:58;;;;;;;;;;;;;;;29.13;74.39;100566.44;5080890;27;66245;-33
2021/10/14 00:20:07;;;;;;;;;;;;;;;29.14;73.74;100573.50;5092084;27;70115;-33
2021/10/14 00:23:02;;;;;;;;;;;;;;;29.16;74.87;100584.91;5083316;27;66334;-34
2021/10/14 00:26:06;;;;;;;;;;;;;;;29.19;74.71;100587.19;5088576;27;70276;-34
2021/10/14 00:29:00;;;;;;;;;;;;;;;29.22;75.33;100597.56;5069429;27;66482;-34
2021/10/14 00:31:49;;;;;;;;;;;;;;;29.24;75.24;100594.66;5093317;27;69195;-34
2021/10/14 00:34:47;;;;;;;;;;;;;;;29.26;75.65;100587.16;5052301;27;65402;-34
2021/10/14 00:37:55;;;;;;;;;;;;;;;29.27;75.87;100595.03;5078531;27;69013;-34
2021/10/14 00:40:56;;;;;;;;;;;;;;;29.30;76.67;100597.31;5084891;27;65773;-34
2021/10/14 00:43:57;;;;;;;;;;;;;;;29.34;76.28;100597.72;4540444;27;17745347;-34
2021/10/14 00:47:38;;;;;;;;;;;;;;;29.36;76.32;100604.56;5129711;27;66744;-35
2021/10/14 00:50:48;;;;;;;;;;;;;;;29.33;77.47;100594.16;5120916;27;71226;-35
2021/10/14 00:54:28;;;;;;;;;;;;;;;29.44;77.16;100605.34;5085569;27;65545;-35
2021/10/14 00:58:00;;;;;;;;;;;;;;;29.46;77.09;100603.25;5119175;27;69924;-35
2021/10/14 01:01:21;;;;;;;;;;;;;;;29.48;77.56;100611.97;5117586;27;66308;-35
2021/10/14 01:04:58;;;;;;;;;;;;;;;29.49;76.92;100619.03;5116410;27;69254;-35
2021/10/14 01:08:13;;;;;;;;;;;;;;;29.55;78.05;100620.84;5109909;27;66270;-35
2021/10/14 01:11:25;;;;;;;;;;;;;;;29.56;77.31;100620.66;5111909;27;70101;-34
2021/10/14 01:14:21;;;;;;;;;;;;;;;29.59;77.67;100619.41;5103653;27;66202;-35
2021/10/14 01:18:08;;;;;;;;;;;;;;;29.61;77.19;100623.53;5069563;27;69991;-35
2021/10/14 01:21:34;;;;;;;;;;;;;;;29.65;77.93;100632.06;5135881;27;43009;-35
2021/10/14 01:24:40;;;;;;;;;;;;;;;29.70;77.35;100642.19;5088927;27;70037;-35
2021/10/14 01:28:00;;;;;;;;;;;;;;;29.73;77.43;100641.78;5053623;27;65694;-35
2021/10/14 01:31:27;;;;;;;;;;;;;;;29.74;77.72;100638.84;5099357;27;69844;-35
2021/10/14 01:34:40;;;;;;;;;;;;;;;29.78;77.55;100645.50;5132174;27;66665;-34
2021/10/14 01:38:18;;;;;;;;;;;;;;;29.81;77.78;100645.06;5099054;27;69258;-35
2021/10/14 01:41:44;;;;;;;;;;;;;;;29.85;77.28;100637.31;5116047;27;66236;-34
2021/10/14 01:45:17;;;;;;;;;;;;;;;29.90;77.92;100636.69;5107911;27;70647;-34
2021/10/14 01:48:18;;;;;;;;;;;;;;;29.93;77.48;100641.66;5112427;27;65972;-34
2021/10/14 01:51:15;;;;;;;;;;;;;;;29.96;77.98;100638.50;5061764;27;68653;-34
2021/10/14 01:54:40;;;;;;;;;;;;;;;29.98;77.63;100644.53;5125235;27;65574;-34
2021/10/14 01:58:27;;;;;;;;;;;;;;;30.02;77.52;100629.50;5122654;27;69709;-33
2021/10/14 02:01:17;;;;;;;;;;;;;;;30.05;77.85;100629.88;5097896;27;66259;-34
2021/10/14 02:05:01;;;;;;;;;;;;;;;30.18;77.49;100634.34;5123666;27;70045;-36
2021/10/14 02:08:31;;;;;;;;;;;;;;;30.23;76.64;100622.91;5067490;27;65609;-36
2021/10/14 02:11:58;;;;;;;;;;;;;;;30.32;76.62;100634.28;5066196;27;68977;-36
2021/10/14 02:18:39;;;;;;;;;;;;;;;30.41;75.70;100630.22;5099607;27;70583;-35
2021/10/14 02:21:52;;;;;;;;;;;;;;;30.47;75.48;100632.03;5108028;27;64678;-36
2021/10/14 02:24:50;;;;;;;;;;;;;;;30.51;75.13;100627.84;5105870;27;69877;-36
2021/10/14 02:28:12;;;;;;;;;;;;;;;30.57;75.27;100626.94;5096536;27;66916;-36
2021/10/14 02:31:28;;;;;;;;;;;;;;;30.63;75.33;100625.22;5024169;27;43768;-37
2021/10/14 02:34:32;;;;;;;;;;;;;;;30.68;74.72;100622.66;4983553;28;69477;-36
2021/10/14 02:37:49;;;;;;;;;;;;;;;30.72;75.20;100619.25;5051520;27;66308;-36
2021/10/14 02:41:03;;;;;;;;;;;;;;;30.77;74.77;100620.47;5039507;27;70244;-36
2021/10/14 02:44:22;;;;;;;;;;;;;;;30.81;74.57;100610.88;4979746;28;66179;-36
2021/10/14 02:47:46;;;;;;;;;;;;;;;30.86;74.69;100625.38;4969234;28;69934;-36
2021/10/14 02:50:54;;;;;;;;;;;;;;;30.89;74.53;100614.09;4969737;27;65731;-36
2021/10/14 02:54:24;;;;;;;;;;;;;;;30.93;74.33;100609.06;4967497;28;70554;-36
2021/10/14 02:57:41;;;;;;;;;;;;;;;30.96;75.33;100600.50;5011709;27;67064;-36
2021/10/14 03:01:03;;;;;;;;;;;;;;;30.99;75.42;100602.75;4964162;28;69876;-36
2021/10/14 03:04:23;;;;;;;;;;;;;;;31.02;75.03;100596.03;4996462;27;65737;-37
2021/10/14 03:07:30;;;;;;;;;;;;;;;31.03;76.01;100598.50;4973284;28;70100;-37
2021/10/14 03:10:50;;;;;;;;;;;;;;;31.05;75.09;100596.41;4964048;28;65629;-36
2021/10/14 03:13:53;;;;;;;;;;;;;;;31.06;74.87;100580.97;4971753;28;70445;-36
2021/10/14 03:17:04;;;;;;;;;;;;;;;31.10;74.34;100583.00;4948741;28;66284;-36
2021/10/14 03:20:02;;;;;;;;;;;;;;;31.11;73.58;100573.00;4967245;28;70066;-37
2021/10/14 03:23:07;;;;;;;;;;;;;;;31.14;73.61;100567.09;4966287;28;66432;-37
2021/10/14 03:26:21;;;;;;;;;;;;;;;31.16;73.74;100565.00;4972990;28;70122;-36
2021/10/14 03:29:49;;;;;;;;;;;;;;;31.20;73.52;100554.53;4964401;28;66404;-36
2021/10/14 03:32:47;;;;;;;;;;;;;;;31.22;73.17;100541.59;5022853;28;70070;-37
2021/10/14 03:35:41;;;;;;;;;;;;;;;31.23;73.67;100535.94;4972057;28;66620;-37
2021/10/14 03:38:39;;;;;;;;;;;;;;;31.27;72.82;100537.13;5050850;27;70483;-37
2021/10/14 03:41:40;;;;;;;;;;;;;;;31.12;71.46;100499.63;4956028;28;66416;-36
2021/10/14 03:44:25;;;;;;;;;;;;;;;31.29;71.94;100526.06;4950422;28;68582;-38
2021/10/14 03:47:13;;;;;;;;;;;;;;;31.30;71.31;100514.97;4952624;28;65891;-37
2021/10/14 03:50:17;;;;;;;;;;;;;;;31.32;70.70;100512.03;4952593;28;69932;-38
2021/10/14 03:52:59;;;;;;;;;;;;;;;31.32;70.74;100509.34;5022044;28;65846;-38
2021/10/14 03:55:47;;;;;;;;;;;;;;;31.33;70.41;100495.53;4951110;28;70425;-37
2021/10/14 03:58:22;;;;;;;;;;;;;;;31.35;70.02;100485.28;5026003;28;66608;-38
2021/10/14 04:00:59;;;;;;;;;;;;;;;31.37;69.63;100485.94;4950763;28;69741;-37
2021/10/14 04:03:41;;;;;;;;;;;;;;;31.39;69.78;100475.66;4954142;28;66582;-37
2021/10/14 04:06:22;;;;;;;;;;;;;;;31.45;69.28;100479.31;4951666;28;69459;-37
2021/10/14 04:09:17;;;;;;;;;;;;;;;31.48;69.75;100470.75;4954970;27;66925;-37
2021/10/14 04:11:53;;;;;;;;;;;;;;;31.52;69.72;100463.78;4949765;28;70298;-37
2021/10/14 04:14:31;;;;;;;;;;;;;;;31.56;69.22;100461.41;5011453;28;64648;-36
2021/10/14 04:17:17;;;;;;;;;;;;;;;31.56;69.34;100466.84;5001598;28;70755;-37
2021/10/14 04:19:52;;;;;;;;;;;;;;;31.56;69.32;100459.53;4952504;28;66466;-37
2021/10/14 04:22:36;;;;;;;;;;;;;;;31.60;69.64;100452.59;4936786;28;69822;-34
2021/10/14 04:25:15;;;;;;;;;;;;;;;31.61;69.34;100440.66;4955102;27;66466;-34
2021/10/14 04:27:56;;;;;;;;;;;;;;;31.63;69.52;100440.44;4949262;28;70267;-34
2021/10/14 04:30:30;;;;;;;;;;;;;;;31.66;69.33;100428.31;4947229;28;66479;-34
2021/10/14 04:33:12;;;;;;;;;;;;;;;31.68;69.34;100431.59;4948855;28;69777;-34
2021/10/14 04:35:50;;;;;;;;;;;;;;;31.71;69.25;100447.41;5028257;28;66074;-34
2021/10/14 04:38:44;;;;;;;;;;;;;;;31.69;68.87;100427.84;4953395;28;70358;-34
2021/10/14 04:41:29;;;;;;;;;;;;;;;31.73;68.32;100423.56;4950393;28;66555;-34
2021/10/14 04:44:16;;;;;;;;;;;;;;;31.75;68.57;100426.88;5048974;27;69898;-34
2021/10/14 04:47:29;;;;;;;;;;;;;;;31.75;68.26;100426.88;4950721;28;66298;-34
2021/10/14 04:50:14;;;;;;;;;;;;;;;31.77;67.98;100414.72;4933998;28;69680;-34
2021/10/14 04:52:51;;;;;;;;;;;;;;;31.82;68.15;100405.91;4948622;28;65780;-34
2021/10/14 04:55:24;;;;;;;;;;;;;;;31.85;67.65;100400.00;4958598;28;69168;-34
2021/10/14 04:58:01;;;;;;;;;;;;;;;31.89;67.92;100395.72;4947886;28;64314;-34
2021/10/14 05:00:35;;;;;;;;;;;;;;;31.90;67.88;100391.97;5033432;28;69542;-35
2021/10/14 05:03:10;;;;;;;;;;;;;;;31.93;68.11;100391.53;4954060;28;66598;-34
2021/10/14 05:05:46;;;;;;;;;;;;;;;31.94;67.92;100387.72;5025316;28;70057;-33
2021/10/14 05:08:18;;;;;;;;;;;;;;;31.97;68.53;100387.25;4978961;27;66539;-33
2021/10/14 05:10:53;;;;;;;;;;;;;;;32.02;68.42;100372.97;5027722;28;69811;-33
2021/10/14 05:13:26;;;;;;;;;;;;;;;32.03;68.89;100370.00;4934764;28;66420;-34
2021/10/14 05:16:03;;;;;;;;;;;;;;;32.04;68.93;100363.53;4951249;28;69151;-33
2021/10/14 05:18:36;;;;;;;;;;;;;;;32.05;69.00;100348.91;4947892;28;66414;-33
2021/10/14 05:21:06;;;;;;;;;;;;;;;32.08;69.28;100333.22;4947359;28;69784;-34
2021/10/14 05:23:37;;;;;;;;;;;;;;;32.09;68.96;100329.41;5049542;27;66354;-33
2021/10/14 05:26:07;;;;;;;;;;;;;;;32.11;69.27;100327.28;4934977;28;70034;-33
2021/10/14 05:28:38;;;;;;;;;;;;;;;32.13;68.97;100325.16;4946617;28;65987;-33
2021/10/14 05:31:09;;;;;;;;;;;;;;;32.15;68.70;100323.00;4936449;28;70079;-33
2021/10/14 05:33:40;;;;;;;;;;;;;;;32.16;68.29;100322.78;4948558;28;65253;-33
2021/10/14 05:36:10;;;;;;;;;;;;;;;32.16;68.08;100330.09;4949133;28;70154;-33
2021/10/14 05:38:41;;;;;;;;;;;;;;;32.15;68.31;100331.16;4949258;28;65892;-34
2021/10/14 05:41:11;;;;;;;;;;;;;;;32.19;68.12;100378.47;4947056;28;70335;-34
2021/10/14 05:43:42;;;;;;;;;;;;;;;32.18;67.82;100360.50;4948553;28;66515;-34
2021/10/14 05:46:13;;;;;;;;;;;;;;;32.18;68.05;100334.22;4950335;28;69265;-34
2021/10/14 05:48:44;;;;;;;;;;;;;;;32.17;67.90;100348.84;4945273;28;66157;-34
2021/10/14 05:51:14;;;;;;;;;;;;;;;32.18;68.06;100349.66;4948503;28;69647;-34
2021/10/14 05:53:45;;;;;;;;;;;;;;;32.18;67.61;100333.38;4950363;28;65437;-34
2021/10/14 05:56:15;;;;;;;;;;;;;;;32.18;67.61;100328.81;4949372;27;70618;-35
2021/10/14 05:58:45;;;;;;;;;;;;;;;32.19;67.75;100324.19;4947574;28;66126;-33
2021/10/14 06:01:16;;;;;;;;;;;;;;;32.17;67.70;100320.88;4942850;28;70035;-34
2021/10/14 06:03:47;;;;;;;;;;;;;;;32.15;67.72;100323.88;4929832;28;66809;-34
2021/10/14 06:06:17;;;;;;;;;;;;;;;32.16;67.54;100340.97;4944875;28;70224;-34
2021/10/14 06:08:47;;;;;;;;;;;;;;;32.16;67.77;100325.50;4947795;28;67086;-34
2021/10/14 06:11:20;;;;;;;;;;;;;;;32.14;67.55;100316.78;4943796;28;69763;-33
2021/10/14 06:13:53;;;;;;;;;;;;;;;32.13;67.54;100309.72;5048054;27;66366;-34
2021/10/14 06:16:24;;;;;;;;;;;;;;;32.12;67.33;100307.22;4949269;28;69663;-34
2021/10/14 06:19:00;;;;;;;;;;;;;;;32.12;67.19;100297.19;4949166;28;67478;-34
2021/10/14 06:21:30;;;;;;;;;;;;;;;32.13;67.30;100281.75;4948348;28;69853;-34
2021/10/14 06:24:01;;;;;;;;;;;;;;;32.10;67.08;100276.81;4947558;28;66535;-33
2021/10/14 06:26:34;;;;;;;;;;;;;;;32.11;66.92;100289.31;5010097;28;69325;-34
2021/10/14 06:29:04;;;;;;;;;;;;;;;32.11;67.07;100305.59;4948410;28;66371;-34
2021/10/14 06:31:34;;;;;;;;;;;;;;;32.09;67.11;100310.41;4933120;28;69860;-34
2021/10/14 06:34:09;;;;;;;;;;;;;;;32.08;66.88;100289.78;4948069;28;65663;-33
2021/10/14 06:36:43;;;;;;;;;;;;;;;32.07;66.74;100272.69;4919118;28;69277;-34
2021/10/14 06:39:19;;;;;;;;;;;;;;;32.06;66.52;100262.91;4947980;28;65817;-33
2021/10/14 06:41:50;;;;;;;;;;;;;;;32.05;66.19;100272.94;4948400;28;70277;-33
2021/10/14 06:44:23;;;;;;;;;;;;;;;32.02;66.27;100262.56;4951498;28;65458;-33
2021/10/14 06:46:54;;;;;;;;;;;;;;;32.01;66.24;100263.66;4944729;28;69307;-33
2021/10/14 06:49:31;;;;;;;;;;;;;;;31.99;66.05;100271.19;4950820;28;66347;-33
2021/10/14 06:52:09;;;;;;;;;;;;;;;31.99;66.02;100265.75;4952354;28;70118;-32
2021/10/14 06:54:41;;;;;;;;;;;;;;;31.98;65.46;100253.28;4949058;28;66222;-33
2021/10/14 06:57:19;;;;;;;;;;;;;;;31.97;65.80;100251.63;4945178;28;69071;-34
2021/10/14 06:59:54;;;;;;;;;;;;;;;31.96;66.02;100249.16;4947018;28;67307;-34
2021/10/14 07:02:29;;;;;;;;;;;;;;;31.94;65.88;100268.38;4948725;28;70086;-34
2021/10/14 07:05:43;;;;;;;;;;;;;;;31.93;65.98;100265.88;4991434;28;66322;-34
2021/10/14 07:08:37;;;;;;;;;;;;;;;31.91;65.98;100273.44;4934872;28;68684;-34
2021/10/14 07:11:32;;;;;;;;;;;;;;;31.89;66.17;100260.09;4937227;28;68035;-34
2021/10/14 07:14:25;;;;;;;;;;;;;;;31.87;66.46;100256.81;4954941;28;70362;-43
2021/10/14 07:17:06;;;;;;;;;;;;;;;31.86;66.97;100257.06;5013996;28;66454;-34
2021/10/14 07:20:01;;;;;;;;;;;;;;;31.84;66.53;100257.28;4945746;28;70106;-35
2021/10/14 07:22:47;;;;;;;;;;;;;;;31.67;66.26;100229.31;4947126;28;66823;-34
2021/10/14 07:25:38;;;;;;;;;;;;;;;31.81;66.45;100249.63;4950128;28;70038;-35
2021/10/14 07:28:50;;;;;;;;;;;;;;;31.80;65.93;100256.13;4946950;28;66251;-34
2021/10/14 07:31:51;;;;;;;;;;;;;;;31.78;66.11;100247.41;4950047;28;70090;-34
2021/10/14 07:34:33;;;;;;;;;;;;;;;31.75;66.14;100226.22;4951061;28;65582;-33
2021/10/14 07:37:18;;;;;;;;;;;;;;;31.73;65.92;100223.75;4953974;28;70336;-33
2021/10/14 07:40:10;;;;;;;;;;;;;;;31.73;66.38;100221.03;5011554;28;65147;-33
2021/10/14 07:43:04;;;;;;;;;;;;;;;31.73;66.47;100228.34;5032663;28;70074;-34
2021/10/14 07:46:06;;;;;;;;;;;;;;;31.72;66.40;100215.84;4938791;28;66391;-34
2021/10/14 07:49:09;;;;;;;;;;;;;;;31.73;66.37;100217.47;4953201;28;69085;-34
2021/10/14 07:51:57;;;;;;;;;;;;;;;31.72;66.64;100210.44;4948391;28;66883;-34
2021/10/14 07:54:33;;;;;;;;;;;;;;;31.71;66.65;100203.38;4955954;28;69497;-34
2021/10/14 07:57:10;;;;;;;;;;;;;;;31.71;67.24;100201.47;4931848;28;67064;-34
2021/10/14 08:00:11;;;;;;;;;;;;;;;31.70;66.57;100196.28;5011073;28;69838;-34
2021/10/14 08:03:17;;;;;;;;;;;;;;;31.69;66.28;100191.94;5016302;28;66688;-38
2021/10/14 08:06:03;;;;;;;;;;;;;;;31.67;65.50;100197.59;5086856;27;70258;-34
2021/10/14 08:08:57;;;;;;;;;;;;;;;31.65;65.54;100194.31;5091445;27;65778;-34
2021/10/14 08:11:51;;;;;;;;;;;;;;;31.64;65.56;100198.06;5088808;27;69098;-34
2021/10/14 08:14:47;;;;;;;;;;;;;;;31.63;65.71;100179.34;5070989;27;66221;-34
2021/10/14 08:17:31;;;;;;;;;;;;;;;31.49;67.11;100193.19;5089598;27;69774;-34
2021/10/14 08:20:22;;;;;;;;;;;;;;;31.33;68.14;100189.31;5068993;27;65395;-34
2021/10/14 08:23:18;;;;;;;;;;;;;;;31.27;68.56;100186.75;5072158;27;68742;-34
2021/10/14 08:26:02;;;;;;;;;;;;;;;31.06;69.34;100161.91;5056263;27;65846;-34
2021/10/14 08:29:00;;;;;;;;;;;;;;;31.12;69.55;100188.06;5070079;27;70071;-34
2021/10/14 08:31:47;;;;;;;;;;;;;;;31.11;69.61;100189.13;5092567;27;65552;-34
2021/10/14 08:34:30;;;;;;;;;;;;;;;31.08;70.26;100205.03;5070659;27;69859;-34
2021/10/14 08:37:23;;;;;;;;;;;;;;;31.04;70.29;100199.28;5025090;27;65855;-34
2021/10/14 08:40:05;;;;;;;;;;;;;;;31.02;70.73;100206.81;4932595;28;69842;-34
2021/10/14 08:42:43;;;;;;;;;;;;;;;30.98;70.50;100205.66;4946916;28;65418;-35
2021/10/14 08:45:28;;;;;;;;;;;;;;;30.91;71.33;100211.16;4952767;28;69509;-35
2021/10/14 08:48:02;;;;;;;;;;;;;;;30.90;71.41;100217.66;5012409;28;65839;-35
2021/10/14 08:50:58;;;;;;;;;;;;;;;30.88;71.16;100216.25;4909169;28;68855;-34
2021/10/14 08:54:04;;;;;;;;;;;;;;;30.88;71.80;100216.25;4948704;28;65478;-34
2021/10/14 08:56:51;;;;;;;;;;;;;;;30.84;71.95;100215.03;4950787;28;69719;-36
2021/10/14 08:59:40;;;;;;;;;;;;;;;30.81;71.84;100210.09;4999927;28;65637;-35
2021/10/14 09:02:18;;;;;;;;;;;;;;;30.82;72.49;100222.59;4907798;28;70105;-34
2021/10/14 09:04:53;;;;;;;;;;;;;;;30.80;72.35;100225.53;4930648;28;66409;-34
2021/10/14 09:07:41;;;;;;;;;;;;;;;30.80;72.47;100232.84;4929921;28;69899;-34
2021/10/14 09:10:32;;;;;;;;;;;;;;;30.79;72.66;100245.53;4912683;28;66005;-34
2021/10/14 09:13:14;;;;;;;;;;;;;;;30.73;72.62;100247.28;4923904;28;69465;-34
2021/10/14 09:15:49;;;;;;;;;;;;;;;30.71;73.27;100244.00;4929595;28;66607;-35
2021/10/14 09:18:29;;;;;;;;;;;;;;;30.71;73.10;100245.88;4913483;28;69167;-34
2021/10/14 09:21:04;;;;;;;;;;;;;;;30.71;73.52;100249.41;4929575;28;66401;-34
2021/10/14 09:23:36;;;;;;;;;;;;;;;30.70;73.67;100252.31;4925605;28;70927;-34
2021/10/14 09:26:07;;;;;;;;;;;;;;;30.71;73.54;100260.22;4913364;28;65753;-34
2021/10/14 09:28:39;;;;;;;;;;;;;;;30.72;74.10;100259.16;4931921;28;69393;-35
2021/10/14 09:31:11;;;;;;;;;;;;;;;30.72;74.03;100274.59;4913273;28;66063;-34
2021/10/14 09:33:47;;;;;;;;;;;;;;;30.69;73.99;100275.88;4907364;28;70300;-35
2021/10/14 09:36:20;;;;;;;;;;;;;;;30.69;73.73;100284.00;4929907;28;66516;-35
2021/10/14 09:38:57;;;;;;;;;;;;;;;30.70;74.00;100280.25;4906765;28;69310;-35
2021/10/14 09:41:36;;;;;;;;;;;;;;;30.69;74.00;100278.59;4924200;28;65624;-35
2021/10/14 09:44:14;;;;;;;;;;;;;;;30.69;74.11;100285.88;4928251;28;69415;-35
2021/10/14 09:46:50;;;;;;;;;;;;;;;30.67;74.01;100280.72;4940670;28;65554;-35
2021/10/14 09:49:30;;;;;;;;;;;;;;;30.68;74.21;100281.53;4947178;28;70368;-35
2021/10/14 09:52:04;;;;;;;;;;;;;;;30.66;74.20;100279.06;4948536;28;66383;-35
2021/10/14 09:54:35;;;;;;;;;;;;;;;30.66;73.90;100294.47;4952525;27;70062;-34
2021/10/14 09:57:06;;;;;;;;;;;;;;;30.65;74.10;100296.38;4946548;28;65260;-35
2021/10/14 09:59:45;;;;;;;;;;;;;;;30.68;74.22;100293.19;4950508;28;70188;-34
2021/10/14 10:02:16;;;;;;;;;;;;;;;30.67;74.64;100286.13;4947158;28;66407;-34
2021/10/14 10:04:48;;;;;;;;;;;;;;;30.67;74.78;100288.84;4951238;28;69965;-34
2021/10/14 10:07:26;;;;;;;;;;;;;;;30.67;74.45;100291.56;4947399;28;65455;-34
2021/10/14 10:09:56;;;;;;;;;;;;;;;30.66;75.01;100306.13;4950113;28;70395;-35
2021/10/14 10:12:27;;;;;;;;;;;;;;;30.67;74.96;100312.34;4952471;28;65609;-34
2021/10/14 10:14:58;;;;;;;;;;;;;;;30.67;75.45;100315.91;4951484;28;70243;-35
2021/10/14 10:17:36;;;;;;;;;;;;;;;30.68;75.22;100322.97;4948412;28;66836;-34
2021/10/14 10:20:08;;;;;;;;;;;;;;;30.67;74.74;100326.75;4951023;28;68721;-35
2021/10/14 10:22:41;;;;;;;;;;;;;;;30.68;74.55;100324.84;4950323;27;66786;-34
2021/10/14 10:25:24;;;;;;;;;;;;;;;30.68;74.94;100327.56;4951760;28;69504;-34
2021/10/14 10:27:57;;;;;;;;;;;;;;;30.68;74.79;100325.69;4952513;28;65832;-34
2021/10/14 10:30:28;;;;;;;;;;;;;;;30.65;74.99;100331.56;4947934;28;70114;-35
2021/10/14 10:32:59;;;;;;;;;;;;;;;30.68;75.49;100335.69;4947780;28;65924;-34
2021/10/14 10:35:47;;;;;;;;;;;;;;;30.67;75.72;100348.41;4947444;28;70304;-34
2021/10/14 10:38:20;;;;;;;;;;;;;;;30.68;75.87;100355.47;4951095;28;65876;-34
2021/10/14 10:40:52;;;;;;;;;;;;;;;30.63;75.40;100355.31;4953028;28;68988;-34
2021/10/14 10:43:26;;;;;;;;;;;;;;;30.64;75.69;100362.38;4951896;28;65804;-34
2021/10/14 10:46:06;;;;;;;;;;;;;;;30.64;75.25;100367.78;4949860;28;69806;-35
2021/10/14 10:49:17;;;;;;;;;;;;;;;30.62;75.82;100374.47;4953127;28;66041;-35
2021/10/14 10:51:47;;;;;;;;;;;;;;;30.61;76.07;100368.25;4931194;28;69394;-34
2021/10/14 10:54:36;;;;;;;;;;;;;;;30.61;75.68;100379.09;4951098;28;66227;-34
2021/10/14 10:57:26;;;;;;;;;;;;;;;30.60;76.30;100376.63;4948031;28;69959;-33
2021/10/14 10:59:57;;;;;;;;;;;;;;;30.59;76.28;100383.06;4944443;28;66404;-34
2021/10/14 11:02:27;;;;;;;;;;;;;;;30.57;76.15;100394.16;4949350;28;69460;-34
2021/10/14 11:04:59;;;;;;;;;;;;;;;30.55;76.19;100390.84;4951383;28;66409;-33
2021/10/14 11:07:29;;;;;;;;;;;;;;;30.56;75.93;100405.19;5051716;27;69509;-34
2021/10/14 11:10:00;;;;;;;;;;;;;;;30.54;76.43;100413.56;4953711;28;65638;-34
2021/10/14 11:12:30;;;;;;;;;;;;;;;30.55;76.02;100417.91;5033319;28;69339;-34
2021/10/14 11:15:13;;;;;;;;;;;;;;;30.51;76.64;100416.72;4953251;28;66505;-34
2021/10/14 11:17:44;;;;;;;;;;;;;;;30.50;76.86;100417.75;4959074;28;69573;-34
2021/10/14 11:20:15;;;;;;;;;;;;;;;30.49;76.89;100424.25;4959068;28;66432;-34
2021/10/14 11:22:48;;;;;;;;;;;;;;;30.49;77.00;100430.47;4956845;28;69445;-34
2021/10/14 11:25:19;;;;;;;;;;;;;;;30.50;77.10;100432.13;4955253;28;66333;-34
2021/10/14 11:28:03;;;;;;;;;;;;;;;30.49;77.00;100429.66;4930867;28;70542;-42
2021/10/14 11:30:42;;;;;;;;;;;;;;;30.48;77.37;100434.25;4948514;28;65583;-35
2021/10/14 11:33:39;;;;;;;;;;;;;;;30.48;76.86;100438.84;4950135;28;70337;-34
2021/10/14 11:36:09;;;;;;;;;;;;;;;30.45;77.40;100434.69;5035520;28;66183;-35
2021/10/14 11:38:42;;;;;;;;;;;;;;;30.46;77.41;100441.75;4954930;28;69851;-35
2021/10/14 11:41:17;;;;;;;;;;;;;;;30.48;77.64;100438.84;4954271;28;66340;-35
2021/10/14 11:43:56;;;;;;;;;;;;;;;30.48;77.59;100439.66;4954912;28;69290;-34
2021/10/14 11:46:30;;;;;;;;;;;;;;;30.49;77.82;100435.88;4953809;28;65292;-35
2021/10/14 11:49:03;;;;;;;;;;;;;;;30.50;77.93;100442.13;4956156;28;69971;-35
2021/10/14 11:51:34;;;;;;;;;;;;;;;30.50;78.41;100448.34;4953731;27;65933;-35
2021/10/14 11:54:09;;;;;;;;;;;;;;;30.50;77.91;100455.66;4950737;28;69393;-35
2021/10/14 11:56:44;;;;;;;;;;;;;;;30.51;78.13;100462.72;4951600;28;66359;-34
2021/10/14 11:59:20;;;;;;;;;;;;;;;30.50;77.92;100461.88;4951330;28;70877;-34
2021/10/14 12:01:55;;;;;;;;;;;;;;;30.53;77.86;100474.13;4948489;28;66539;-35
2021/10/14 12:04:30;;;;;;;;;;;;;;;30.54;77.88;100481.22;5029642;28;69430;-35
2021/10/14 12:07:05;;;;;;;;;;;;;;;30.57;77.80;100479.94;4949221;28;65584;-34
2021/10/14 12:09:41;;;;;;;;;;;;;;;30.55;77.99;100495.56;4934252;28;69997;-34
2021/10/14 12:12:18;;;;;;;;;;;;;;;30.54;77.50;100496.66;4956788;28;66745;-34
2021/10/14 12:15:06;;;;;;;;;;;;;;;30.53;78.46;100506.63;4951864;28;70176;-34
2021/10/14 12:17:46;;;;;;;;;;;;;;;30.53;78.18;100517.44;4963588;28;66342;-34
2021/10/14 12:20:34;;;;;;;;;;;;;;;30.52;79.34;100531.22;4950127;28;70693;-34
2021/10/14 12:23:07;;;;;;;;;;;;;;;30.51;78.71;100535.81;4954442;28;66581;-33
2021/10/14 12:25:40;;;;;;;;;;;;;;;30.55;79.42;100542.41;4963452;28;70079;-34
2021/10/14 12:28:22;;;;;;;;;;;;;;;30.53;79.25;100549.94;4948960;28;66541;-33
2021/10/14 12:31:12;;;;;;;;;;;;;;;30.51;79.61;100549.34;4953432;28;70206;-34
2021/10/14 12:33:58;;;;;;;;;;;;;;;30.51;79.24;100557.47;4956062;28;65808;-34
2021/10/14 12:36:46;;;;;;;;;;;;;;;30.50;79.42;100566.63;4953680;28;70375;-34
2021/10/14 12:39:21;;;;;;;;;;;;;;;30.48;79.50;100572.28;5045464;27;66349;-34
2021/10/14 12:41:55;;;;;;;;;;;;;;;30.45;79.07;100585.41;4946432;28;69135;-35
2021/10/14 12:44:45;;;;;;;;;;;;;;;30.42;79.29;100575.03;4946999;28;66258;-34
2021/10/14 12:47:30;;;;;;;;;;;;;;;30.42;79.62;100580.44;5026539;27;69614;-34
2021/10/14 12:50:17;;;;;;;;;;;;;;;30.44;78.55;100589.19;4946457;28;65228;-34
2021/10/14 12:53:14;;;;;;;;;;;;;;;30.33;77.07;100588.03;5009644;28;69695;-34
2021/10/14 12:55:59;;;;;;;;;;;;;;;30.28;75.64;100596.84;4952310;28;67462;-34
2021/10/14 12:58:46;;;;;;;;;;;;;;;30.22;74.69;100608.53;4956789;28;70411;-34
2021/10/14 13:01:40;;;;;;;;;;;;;;;30.03;74.13;100587.88;4947272;28;67452;-34
2021/10/14 13:04:23;;;;;;;;;;;;;;;30.10;72.74;100604.88;4954164;28;70226;-34
2021/10/14 13:07:18;;;;;;;;;;;;;;;30.06;72.40;100604.50;4957784;28;66358;-34
2021/10/14 13:09:54;;;;;;;;;;;;;;;30.03;70.72;100604.09;4923797;28;69395;-34
2021/10/14 13:12:33;;;;;;;;;;;;;;;30.03;70.22;100604.09;5029256;28;65940;-35
2021/10/14 13:15:28;;;;;;;;;;;;;;;29.97;69.17;100607.69;4954305;28;70171;-34
2021/10/14 13:18:13;;;;;;;;;;;;;;;29.97;69.09;100611.22;4960521;28;66630;-35
2021/10/14 13:20:50;;;;;;;;;;;;;;;29.95;68.27;100612.47;4955188;28;69801;-35
2021/10/14 13:23:34;;;;;;;;;;;;;;;29.95;67.92;100634.13;4940972;28;66443;-35
2021/10/14 13:26:43;;;;;;;;;;;;;;;29.94;67.37;100621.66;5009043;27;45055;-35
2021/10/14 13:29:42;;;;;;;;;;;;;;;29.90;66.62;100621.28;4986963;27;70005;-35
2021/10/14 13:32:45;;;;;;;;;;;;;;;29.84;65.83;100622.97;4988243;27;66695;-35
2021/10/14 13:35:44;;;;;;;;;;;;;;;29.79;64.92;100636.31;4992612;27;70521;-36
2021/10/14 13:38:48;;;;;;;;;;;;;;;29.76;64.19;100636.75;4980262;27;65339;-41
2021/10/14 13:41:44;;;;;;;;;;;;;;;29.73;64.24;100648.03;4966388;28;70111;-35
2021/10/14 13:44:38;;;;;;;;;;;;;;;29.70;63.99;100663.81;4982529;28;65420;-34
2021/10/14 13:47:23;;;;;;;;;;;;;;;29.69;65.70;100646.78;4986448;28;70126;-34
2021/10/14 13:50:00;;;;;;;;;;;;;;;29.67;64.76;100643.50;4987582;27;65748;-35
2021/10/14 13:52:36;;;;;;;;;;;;;;;29.63;64.67;100647.66;5002147;27;68931;-35
2021/10/14 13:55:14;;;;;;;;;;;;;;;29.58;64.35;100642.03;4968879;28;65348;-34
2021/10/14 13:58:08;;;;;;;;;;;;;;;29.54;63.49;100641.66;4990665;28;69653;-35
2021/10/14 14:01:11;;;;;;;;;;;;;;;29.50;63.51;100645.81;4984964;27;66981;-35
2021/10/14 14:04:31;;;;;;;;;;;;;;;29.48;62.88;100655.22;4980835;27;69793;-35
2021/10/14 14:07:09;;;;;;;;;;;;;;;29.44;62.21;100664.78;4979757;27;66077;-35
2021/10/14 14:09:47;;;;;;;;;;;;;;;29.37;61.99;100660.25;4983019;27;69357;-35
2021/10/14 14:12:19;;;;;;;;;;;;;;;29.35;61.16;100667.72;4982468;27;66580;-35
2021/10/14 14:14:55;;;;;;;;;;;;;;;29.33;60.94;100672.50;4981174;27;70587;-35
2021/10/14 14:17:32;;;;;;;;;;;;;;;29.28;59.77;100675.06;4981710;27;65722;-34
2021/10/14 14:20:04;;;;;;;;;;;;;;;29.26;59.38;100681.72;4977750;27;69997;-34
2021/10/14 14:22:35;;;;;;;;;;;;;;;29.22;59.11;100678.59;4982491;27;66586;-34